KAKR METAR and TAF | Updated Today

KAKR METAR

Akron Fulton International Airport

Observation time: 29 min. ago

KAKR 061854Z AUTO 00000KT 10SM OVC014 01/M04 A3023 RMK AO2 SLP245 T00111044

Need help? Read our tutorial on how to read METARs or read the parsed version below.

Akron Fulton International Airport (KAKR) METAR

  • Weather conditions on Mon, 06 Feb 2023 18:54:00 +0000 (29 min. ago):
  • Present conditions: Dry
  • Clouds: Overcast sky at 427 meters
  • Visibility: 16093 meters
  • Wind: Calm
  • Temperature: 1 celsius
  • Dew point: -4 celsius
  • Pressure: 30.23 inHg
  • Remarks: AO2 SLP245 T00111044


Useful to know...

KAKR TAF

Akron Fulton International Airport

TAF not found.

Airports near KAKR

KBJJ Weather
Region: Wooster

Wayne County Airport

Not found in our database
KBKL Weather
IATA: BKL
Region: Cleveland

Burke Lakefront Airport

Found in our database
KCAK Weather
IATA: CAK
Region: Akron

Akron Canton Regional Airport

Found in our database
KCGF Weather
IATA: CGF
Region: Cleveland

Cuyahoga County Airport

Found in our database
KCLE Weather
IATA: CLE
Region: Cleveland

Cleveland Hopkins International Airport

Found in our database
KLNN Weather
Region: Willoughby

Willoughby Lost Nation Municipal Airport

Not found in our database
KPHD Weather
Region: New Philadelphia

Harry Clever Field

Not found in our database